createdAt,value
2022-10-07T00:00:20.451Z,1021.21
2022-10-07T00:01:20.530Z,1021.19
2022-10-07T00:02:20.518Z,1021.21
2022-10-07T00:03:20.421Z,1021.21
2022-10-07T00:04:20.406Z,1021.19
2022-10-07T00:05:20.395Z,1021.16
2022-10-07T00:06:20.372Z,1021.20
2022-10-07T00:07:20.372Z,1021.20
2022-10-07T00:08:20.347Z,1021.14
2022-10-07T00:09:20.358Z,1021.14
2022-10-07T00:10:20.332Z,1021.06
2022-10-07T00:11:20.308Z,1021.14
2022-10-07T00:12:20.307Z,1021.11
2022-10-07T00:13:20.304Z,1021.13
2022-10-07T00:14:20.288Z,1021.06
2022-10-07T00:15:20.267Z,1021.08
2022-10-07T00:16:20.350Z,1021.11
2022-10-07T00:17:20.259Z,1021.11
2022-10-07T00:18:20.253Z,1021.09
2022-10-07T00:19:20.228Z,1021.04
2022-10-07T00:20:20.210Z,1021.05
2022-10-07T00:21:20.221Z,1021.02
2022-10-07T00:22:20.195Z,1021.05
2022-10-07T00:23:20.189Z,1021.01
2022-10-07T00:24:20.196Z,1021.01
2022-10-07T00:25:20.169Z,1020.98
2022-10-07T00:26:20.183Z,1020.95
2022-10-07T00:27:20.154Z,1021.00
2022-10-07T00:28:20.189Z,1020.94
2022-10-07T00:29:20.123Z,1020.96
2022-10-07T00:30:20.112Z,1020.95
2022-10-07T00:31:20.180Z,1020.89
2022-10-07T00:32:20.097Z,1020.92
2022-10-07T00:33:20.083Z,1020.90
2022-10-07T00:34:20.078Z,1020.94
2022-10-07T00:35:20.044Z,1020.95
2022-10-07T00:36:20.050Z,1020.90
2022-10-07T00:37:20.066Z,1020.88
2022-10-07T00:38:20.037Z,1020.90
2022-10-07T00:39:20.034Z,1020.83
2022-10-07T00:40:19.995Z,1020.84
2022-10-07T00:41:20.006Z,1020.81
2022-10-07T00:42:19.971Z,1020.77
2022-10-07T00:43:19.963Z,1020.80
2022-10-07T00:44:19.972Z,1020.78
2022-10-07T00:45:19.950Z,1020.78
2022-10-07T00:46:20.011Z,1020.75
2022-10-07T00:47:19.931Z,1020.78
2022-10-07T00:48:19.916Z,1020.72
2022-10-07T00:49:19.921Z,1020.76
2022-10-07T00:50:19.887Z,1020.75
2022-10-07T00:51:19.871Z,1020.82
2022-10-07T00:52:19.861Z,1020.76
2022-10-07T00:53:19.887Z,1020.69
2022-10-07T00:54:19.842Z,1020.69
2022-10-07T00:55:19.831Z,1020.68
2022-10-07T00:56:19.830Z,1020.62
2022-10-07T00:57:19.815Z,1020.62
2022-10-07T00:58:19.801Z,1020.60
2022-10-07T00:59:19.799Z,1020.57
2022-10-07T01:00:19.780Z,1020.62
2022-10-07T01:01:19.873Z,1020.64
2022-10-07T01:02:19.863Z,1020.62
2022-10-07T01:03:19.738Z,1020.58
2022-10-07T01:04:19.723Z,1020.60
2022-10-07T01:05:19.720Z,1020.55
2022-10-07T01:06:19.710Z,1020.49
2022-10-07T01:07:19.706Z,1020.53
2022-10-07T01:08:19.715Z,1020.51
2022-10-07T01:09:19.754Z,1020.48
2022-10-07T01:10:19.674Z,1020.51
2022-10-07T01:11:19.662Z,1020.48
2022-10-07T01:12:19.631Z,1020.47
2022-10-07T01:13:19.630Z,1020.51
2022-10-07T01:14:19.634Z,1020.51
2022-10-07T01:15:19.603Z,1020.47
2022-10-07T01:16:19.622Z,1020.44
2022-10-07T01:17:19.580Z,1020.48
2022-10-07T01:18:19.570Z,1020.47
2022-10-07T01:19:19.580Z,1020.40
2022-10-07T01:20:19.547Z,1020.40
2022-10-07T01:21:19.553Z,1020.40
2022-10-07T01:22:19.537Z,1020.38
2022-10-07T01:23:19.515Z,1020.43
2022-10-07T01:24:19.517Z,1020.40
2022-10-07T01:25:19.749Z,1020.41
2022-10-07T01:26:19.499Z,1020.37
2022-10-07T01:27:19.475Z,1020.34
2022-10-07T01:28:19.513Z,1020.36
2022-10-07T01:29:19.460Z,1020.39
2022-10-07T01:30:19.453Z,1020.32
2022-10-07T01:31:19.499Z,1020.30
2022-10-07T01:32:19.421Z,1020.30
2022-10-07T01:33:19.437Z,1020.30
2022-10-07T01:34:19.414Z,1020.27
2022-10-07T01:35:19.398Z,1020.26
2022-10-07T01:36:19.381Z,1020.22
2022-10-07T01:37:19.367Z,1020.21
2022-10-07T01:38:19.351Z,1020.22
2022-10-07T01:39:19.338Z,1020.24
2022-10-07T01:40:19.328Z,1020.22
2022-10-07T01:41:19.364Z,1020.16
2022-10-07T01:42:19.328Z,1020.17
2022-10-07T01:43:19.292Z,1020.18
2022-10-07T01:44:19.275Z,1020.21
2022-10-07T01:45:19.269Z,1020.18
2022-10-07T01:46:19.341Z,1020.18
2022-10-07T01:47:19.266Z,1020.16
2022-10-07T01:48:19.273Z,1020.08
2022-10-07T01:49:19.227Z,1020.06
2022-10-07T01:50:19.219Z,1020.08
2022-10-07T01:51:19.234Z,1020.05
2022-10-07T01:52:19.191Z,1020.01
2022-10-07T01:53:19.183Z,1020.02
2022-10-07T01:54:19.186Z,1020.08
2022-10-07T01:55:19.162Z,1020.04
2022-10-07T01:56:19.143Z,1020.02
2022-10-07T01:57:19.213Z,1020.01
2022-10-07T01:58:19.138Z,1020.01
2022-10-07T01:59:19.120Z,1019.94
2022-10-07T02:00:19.098Z,1019.95
2022-10-07T02:01:19.186Z,1019.94
2022-10-07T02:02:19.098Z,1019.90
2022-10-07T02:03:19.088Z,1019.86
2022-10-07T02:04:19.089Z,1019.89
2022-10-07T02:05:19.068Z,1019.82
2022-10-07T02:06:19.036Z,1019.84
2022-10-07T02:07:19.044Z,1019.79
2022-10-07T02:08:19.062Z,1019.81
2022-10-07T02:09:19.010Z,1019.82
2022-10-07T02:10:19.003Z,1019.83
2022-10-07T02:11:18.996Z,1019.81
2022-10-07T02:12:18.970Z,1019.78
2022-10-07T02:13:18.997Z,1019.70
2022-10-07T02:14:18.946Z,1019.71
2022-10-07T02:15:18.979Z,1019.70
2022-10-07T02:16:19.009Z,1019.74
2022-10-07T02:17:18.919Z,1019.70
2022-10-07T02:18:18.898Z,1019.67
2022-10-07T02:19:18.900Z,1019.77
2022-10-07T02:20:18.907Z,1019.70
2022-10-07T02:21:18.902Z,1019.71
2022-10-07T02:22:18.868Z,1019.69
2022-10-07T02:23:18.847Z,1019.66
2022-10-07T02:24:18.854Z,1019.64
2022-10-07T02:25:18.824Z,1019.61
2022-10-07T02:26:18.829Z,1019.59
2022-10-07T02:27:18.818Z,1019.49
2022-10-07T02:28:18.810Z,1019.54
2022-10-07T02:29:18.813Z,1019.48
2022-10-07T02:30:18.781Z,1019.47
2022-10-07T02:31:18.803Z,1019.50
2022-10-07T02:32:18.776Z,1019.48
2022-10-07T02:33:18.737Z,1019.48
2022-10-07T02:34:20.185Z,1019.47
2022-10-07T02:35:18.724Z,1019.43
2022-10-07T02:36:18.709Z,1019.44
2022-10-07T02:37:18.718Z,1019.46
2022-10-07T02:38:18.698Z,1019.41
2022-10-07T02:39:18.677Z,1019.46
2022-10-07T02:40:18.661Z,1019.41
2022-10-07T02:41:18.661Z,1019.45
2022-10-07T02:42:18.656Z,1019.44
2022-10-07T02:43:18.634Z,1019.47
2022-10-07T02:44:18.619Z,1019.44
2022-10-07T02:45:21.187Z,1019.38
2022-10-07T02:46:18.644Z,1019.39
2022-10-07T02:47:18.585Z,1019.43
2022-10-07T02:48:18.569Z,1019.37
2022-10-07T02:49:18.577Z,1019.39
2022-10-07T02:50:18.554Z,1019.40
2022-10-07T02:51:20.946Z,1019.40
2022-10-07T02:52:18.522Z,1019.32
2022-10-07T02:53:18.510Z,1019.37
2022-10-07T02:54:18.518Z,1019.34
2022-10-07T02:55:18.501Z,1019.34
2022-10-07T02:56:18.484Z,1019.31
2022-10-07T02:57:18.476Z,1019.36
2022-10-07T02:58:18.465Z,1019.38
2022-10-07T02:59:18.450Z,1019.35
2022-10-07T03:00:18.456Z,1019.42
2022-10-07T03:01:18.510Z,1019.30
2022-10-07T03:02:18.417Z,1019.33
2022-10-07T03:03:18.458Z,1019.36
2022-10-07T03:04:18.389Z,1019.33
2022-10-07T03:05:18.380Z,1019.30
2022-10-07T03:06:18.373Z,1019.32
2022-10-07T03:07:18.365Z,1019.29
2022-10-07T03:08:18.341Z,1019.29
2022-10-07T03:09:18.364Z,1019.30
2022-10-07T03:10:18.320Z,1019.25
2022-10-07T03:11:18.312Z,1019.28
2022-10-07T03:12:18.316Z,1019.26
2022-10-07T03:13:18.341Z,1019.14
2022-10-07T03:14:18.280Z,1019.23
2022-10-07T03:15:18.270Z,1019.18
2022-10-07T03:16:18.332Z,1019.17
2022-10-07T03:17:18.265Z,1019.14
2022-10-07T03:18:18.244Z,1019.11
2022-10-07T03:19:18.224Z,1019.09
2022-10-07T03:20:18.209Z,1019.10
2022-10-07T03:21:18.205Z,1019.05
2022-10-07T03:22:18.194Z,1019.05
2022-10-07T03:23:18.181Z,1019.07
2022-10-07T03:24:18.176Z,1019.05
2022-10-07T03:25:18.189Z,1019.03
2022-10-07T03:26:18.145Z,1019.07
2022-10-07T03:27:18.147Z,1019.02
2022-10-07T03:28:18.163Z,1019.05
2022-10-07T03:29:18.116Z,1019.02
2022-10-07T03:30:23.561Z,1019.05
2022-10-07T03:31:19.164Z,1018.97
2022-10-07T03:32:18.081Z,1018.99
2022-10-07T03:33:18.084Z,1019.02
2022-10-07T03:34:18.077Z,1019.00
2022-10-07T03:35:18.050Z,1019.01
2022-10-07T03:36:18.035Z,1018.97
2022-10-07T03:37:18.055Z,1018.98
2022-10-07T03:38:18.018Z,1019.01
2022-10-07T03:39:18.005Z,1019.00
2022-10-07T03:40:17.999Z,1018.95
2022-10-07T03:41:17.975Z,1018.95
2022-10-07T03:42:17.983Z,1018.94
2022-10-07T03:43:17.997Z,1018.93
2022-10-07T03:44:17.946Z,1018.93
2022-10-07T03:45:17.935Z,1018.91
2022-10-07T03:46:18.041Z,1018.91
2022-10-07T03:47:17.940Z,1018.90
2022-10-07T03:48:17.917Z,1018.95
2022-10-07T03:49:17.913Z,1018.89
2022-10-07T03:50:17.878Z,1018.85
2022-10-07T03:51:17.879Z,1018.91
2022-10-07T03:52:17.857Z,1018.82
2022-10-07T03:53:17.867Z,1018.83
2022-10-07T03:54:17.840Z,1018.79
2022-10-07T03:55:17.823Z,1018.79
2022-10-07T03:56:17.814Z,1018.75
2022-10-07T03:57:17.834Z,1018.80
2022-10-07T03:58:17.789Z,1018.79
2022-10-07T03:59:17.783Z,1018.78
2022-10-07T04:00:17.792Z,1018.73
2022-10-07T04:01:17.847Z,1018.70
2022-10-07T04:02:17.778Z,1018.68
2022-10-07T04:03:17.789Z,1018.71
2022-10-07T04:04:17.731Z,1018.73
2022-10-07T04:05:17.734Z,1018.73
2022-10-07T04:06:17.708Z,1018.68
2022-10-07T04:07:17.687Z,1018.69
2022-10-07T04:08:17.695Z,1018.68
2022-10-07T04:09:17.741Z,1018.72
2022-10-07T04:10:17.660Z,1018.67
2022-10-07T04:11:17.652Z,1018.64
2022-10-07T04:12:17.668Z,1018.58
2022-10-07T04:13:17.619Z,1018.57
2022-10-07T04:14:17.626Z,1018.58
2022-10-07T04:15:17.608Z,1018.53
2022-10-07T04:16:17.675Z,1018.55
2022-10-07T04:17:17.597Z,1018.55
2022-10-07T04:18:17.617Z,1018.57
2022-10-07T04:19:17.605Z,1018.52
2022-10-07T04:20:17.548Z,1018.45
2022-10-07T04:21:17.568Z,1018.50
2022-10-07T04:22:17.560Z,1018.49
2022-10-07T04:23:17.514Z,1018.51
2022-10-07T04:24:17.502Z,1018.47
2022-10-07T04:25:17.491Z,1018.46
2022-10-07T04:26:17.501Z,1018.45
2022-10-07T04:27:39.795Z,1018.50
2022-10-07T04:28:18.529Z,1018.46
2022-10-07T04:29:17.462Z,1018.44
2022-10-07T04:30:17.434Z,1018.48
2022-10-07T04:31:17.489Z,1018.48
2022-10-07T04:32:17.437Z,1018.52
2022-10-07T04:33:17.400Z,1018.50
2022-10-07T04:34:17.407Z,1018.56
2022-10-07T04:35:17.372Z,1018.54
2022-10-07T04:36:17.375Z,1018.56
2022-10-07T04:37:17.388Z,1018.54
2022-10-07T04:38:17.374Z,1018.49
2022-10-07T04:39:17.346Z,1018.50
2022-10-07T04:40:17.323Z,1018.46
2022-10-07T04:41:17.326Z,1018.50
2022-10-07T04:42:17.323Z,1018.46
2022-10-07T04:43:17.310Z,1018.47
2022-10-07T04:44:17.280Z,1018.50
2022-10-07T04:45:17.269Z,1018.39
2022-10-07T04:46:17.337Z,1018.45
2022-10-07T04:47:17.314Z,1018.36
2022-10-07T04:48:17.239Z,1018.41
2022-10-07T04:49:17.240Z,1018.41
2022-10-07T04:50:17.261Z,1018.37
2022-10-07T04:51:17.233Z,1018.35
2022-10-07T04:52:17.192Z,1018.36
2022-10-07T04:53:17.192Z,1018.36
2022-10-07T04:54:17.204Z,1018.38
2022-10-07T04:55:17.151Z,1018.36
2022-10-07T04:56:17.161Z,1018.39
2022-10-07T04:57:17.162Z,1018.37
2022-10-07T04:58:17.124Z,1018.35
2022-10-07T04:59:17.108Z,1018.33
2022-10-07T05:00:17.099Z,1018.37
2022-10-07T05:01:17.185Z,1018.40
2022-10-07T05:02:17.157Z,1018.40
2022-10-07T05:03:24.175Z,1018.34
2022-10-07T05:04:18.142Z,1018.37
2022-10-07T05:05:18.084Z,1018.34
2022-10-07T05:06:17.064Z,1018.37
2022-10-07T05:07:17.043Z,1018.36
2022-10-07T05:08:17.031Z,1018.31
2022-10-07T05:09:17.029Z,1018.33
2022-10-07T05:10:16.988Z,1018.36
2022-10-07T05:11:16.989Z,1018.30
2022-10-07T05:12:16.963Z,1018.31
2022-10-07T05:13:16.976Z,1018.32
2022-10-07T05:14:16.943Z,1018.29
2022-10-07T05:15:16.928Z,1018.33
2022-10-07T05:16:16.996Z,1018.33
2022-10-07T05:17:16.909Z,1018.29
2022-10-07T05:18:16.912Z,1018.23
2022-10-07T05:19:16.912Z,1018.25
2022-10-07T05:20:16.890Z,1018.31
2022-10-07T05:21:16.860Z,1018.28
2022-10-07T05:22:16.856Z,1018.24
2022-10-07T05:23:16.842Z,1018.26
2022-10-07T05:24:16.833Z,1018.24
2022-10-07T05:25:16.855Z,1018.27
2022-10-07T05:26:16.823Z,1018.21
2022-10-07T05:27:16.806Z,1018.26
2022-10-07T05:28:16.840Z,1018.25
2022-10-07T05:29:16.777Z,1018.22
2022-10-07T05:30:16.767Z,1018.25
2022-10-07T05:31:16.853Z,1018.21
2022-10-07T05:32:16.749Z,1018.19
2022-10-07T05:33:16.733Z,1018.19
2022-10-07T05:34:16.720Z,1018.20
2022-10-07T05:35:16.711Z,1018.11
2022-10-07T05:36:16.697Z,1018.22
2022-10-07T05:37:16.696Z,1018.13
2022-10-07T05:38:16.688Z,1018.17
2022-10-07T05:39:16.664Z,1018.17
2022-10-07T05:40:16.656Z,1018.16
2022-10-07T05:41:16.660Z,1018.14
2022-10-07T05:42:16.649Z,1018.13
2022-10-07T05:43:16.618Z,1018.10
2022-10-07T05:44:16.639Z,1018.13
2022-10-07T05:45:16.597Z,1018.13
2022-10-07T05:46:16.660Z,1018.13
2022-10-07T05:47:16.586Z,1018.12
2022-10-07T05:48:16.569Z,1018.05
2022-10-07T05:49:16.550Z,1018.07
2022-10-07T05:50:16.556Z,1018.08
2022-10-07T05:51:16.546Z,1018.03
2022-10-07T05:52:16.539Z,1018.06
2022-10-07T05:53:16.504Z,1018.08
2022-10-07T05:54:16.504Z,1018.02
2022-10-07T05:55:16.504Z,1018.07
2022-10-07T05:56:16.477Z,1018.00
2022-10-07T05:57:16.484Z,1018.06
2022-10-07T05:58:16.463Z,1018.04
2022-10-07T05:59:16.450Z,1018.08
2022-10-07T06:00:16.442Z,1018.06
2022-10-07T06:01:16.428Z,1018.07
2022-10-07T06:02:16.577Z,1018.04
2022-10-07T06:03:16.451Z,1018.04
2022-10-07T06:04:16.399Z,1018.02
2022-10-07T06:05:16.376Z,1018.01
2022-10-07T06:06:16.374Z,1018.03
2022-10-07T06:07:20.450Z,1017.96
2022-10-07T06:08:17.346Z,1018.00
2022-10-07T06:09:16.350Z,1018.02
2022-10-07T06:10:16.322Z,1018.03
2022-10-07T06:11:16.307Z,1018.02
2022-10-07T06:12:16.320Z,1018.03
2022-10-07T06:13:16.301Z,1018.00
2022-10-07T06:14:16.285Z,1017.99
2022-10-07T06:15:16.272Z,1018.01
2022-10-07T06:16:16.288Z,1017.98
2022-10-07T06:17:16.251Z,1018.02
2022-10-07T06:18:16.253Z,1017.99
2022-10-07T06:19:16.228Z,1018.01
2022-10-07T06:20:16.211Z,1017.99
2022-10-07T06:21:16.201Z,1018.05
2022-10-07T06:22:16.189Z,1018.02
2022-10-07T06:23:16.178Z,1018.05
2022-10-07T06:24:16.195Z,1018.00
2022-10-07T06:25:16.164Z,1018.01
2022-10-07T06:26:16.145Z,1018.03
2022-10-07T06:27:16.134Z,1017.97
2022-10-07T06:28:16.185Z,1018.07
2022-10-07T06:29:16.128Z,1018.03
2022-10-07T06:30:16.113Z,1018.02
2022-10-07T06:31:16.183Z,1018.03
2022-10-07T06:32:16.081Z,1018.09
2022-10-07T06:33:16.065Z,1018.04
2022-10-07T06:34:16.059Z,1017.99
2022-10-07T06:35:16.067Z,1018.09
2022-10-07T06:36:16.037Z,1018.06
2022-10-07T06:37:16.027Z,1017.99
2022-10-07T06:38:16.013Z,1018.09
2022-10-07T06:39:16.000Z,1018.07
2022-10-07T06:40:15.988Z,1018.05
2022-10-07T06:41:16.003Z,1018.09
2022-10-07T06:42:15.992Z,1018.06
2022-10-07T06:43:15.952Z,1018.03
2022-10-07T06:44:15.947Z,1018.17
2022-10-07T06:45:15.952Z,1018.05
2022-10-07T06:46:16.049Z,1018.09
2022-10-07T06:47:15.914Z,1018.07
2022-10-07T06:48:15.948Z,1018.12
2022-10-07T06:49:15.906Z,1018.06
2022-10-07T06:50:15.913Z,1018.05
2022-10-07T06:51:15.920Z,1018.08
2022-10-07T06:52:15.899Z,1018.04
2022-10-07T06:53:15.872Z,1018.06
2022-10-07T06:54:15.834Z,1018.11
2022-10-07T06:55:15.823Z,1018.12
2022-10-07T06:56:15.816Z,1018.09
2022-10-07T06:57:43.878Z,1018.15
2022-10-07T06:58:16.813Z,1018.10
2022-10-07T06:59:15.775Z,1018.08
2022-10-07T07:00:15.765Z,1018.08
2022-10-07T07:01:15.909Z,1018.03
2022-10-07T07:02:15.842Z,1018.07
2022-10-07T07:03:15.739Z,1018.04
2022-10-07T07:04:15.738Z,1017.96
2022-10-07T07:05:15.718Z,1018.07
2022-10-07T07:06:15.697Z,1017.99
2022-10-07T07:07:15.689Z,1018.04
2022-10-07T07:08:15.707Z,1018.02
2022-10-07T07:09:15.667Z,1018.03
2022-10-07T07:10:15.680Z,1018.03
2022-10-07T07:11:15.641Z,1018.06
2022-10-07T07:12:15.633Z,1018.06
2022-10-07T07:13:15.621Z,1018.06
2022-10-07T07:14:15.628Z,1018.05
2022-10-07T07:15:15.607Z,1018.01
2022-10-07T07:16:15.652Z,1018.03
2022-10-07T07:17:15.595Z,1017.98
2022-10-07T07:18:15.567Z,1017.97
2022-10-07T07:19:15.553Z,1017.97
2022-10-07T07:20:15.556Z,1018.03
2022-10-07T07:21:15.531Z,1018.04
2022-10-07T07:22:15.528Z,1018.06
2022-10-07T07:23:15.514Z,1018.02
2022-10-07T07:24:15.498Z,1018.00
2022-10-07T07:25:15.497Z,1018.02
2022-10-07T07:26:15.476Z,1018.02
2022-10-07T07:27:15.474Z,1017.91
2022-10-07T07:28:15.670Z,1017.94
2022-10-07T07:29:15.439Z,1017.93
2022-10-07T07:30:15.445Z,1017.98
2022-10-07T07:31:15.474Z,1017.98
2022-10-07T07:32:15.429Z,1017.95
2022-10-07T07:33:15.417Z,1018.01
2022-10-07T07:34:15.389Z,1017.93
2022-10-07T07:35:15.380Z,1018.02
2022-10-07T07:36:15.368Z,1017.98
2022-10-07T07:37:15.358Z,1018.05
2022-10-07T07:38:15.341Z,1018.02
2022-10-07T07:39:15.328Z,1018.04
2022-10-07T07:40:15.328Z,1018.12
2022-10-07T07:41:15.309Z,1018.09
2022-10-07T07:42:15.297Z,1018.12
2022-10-07T07:43:15.293Z,1018.20
2022-10-07T07:44:15.297Z,1018.28
2022-10-07T07:45:15.279Z,1018.35
2022-10-07T07:46:15.295Z,1018.28
2022-10-07T07:47:15.245Z,1018.23
2022-10-07T07:48:15.231Z,1018.24
2022-10-07T07:49:15.242Z,1018.20
2022-10-07T07:50:15.207Z,1018.14
2022-10-07T07:51:15.204Z,1018.12
2022-10-07T07:52:15.180Z,1018.21
2022-10-07T07:53:15.174Z,1018.13
2022-10-07T07:54:15.183Z,1017.93
2022-10-07T07:55:15.164Z,1017.99
2022-10-07T07:56:15.142Z,1017.93
2022-10-07T07:57:15.130Z,1017.89
2022-10-07T07:58:15.118Z,1017.91
2022-10-07T07:59:15.126Z,1017.96
2022-10-07T08:00:15.107Z,1017.98
2022-10-07T08:01:15.145Z,1017.96
2022-10-07T08:02:15.186Z,1017.95
2022-10-07T08:03:15.087Z,1017.94
2022-10-07T08:04:15.049Z,1017.96
2022-10-07T08:05:16.387Z,1017.99
2022-10-07T08:06:15.034Z,1017.94
2022-10-07T08:07:15.024Z,1018.02
2022-10-07T08:08:15.005Z,1017.97
2022-10-07T08:09:15.014Z,1017.97
2022-10-07T08:10:15.060Z,1017.88
2022-10-07T08:11:14.975Z,1017.97
2022-10-07T08:12:14.967Z,1017.87
2022-10-07T08:13:14.953Z,1017.85
2022-10-07T08:14:14.950Z,1017.89
2022-10-07T08:15:14.952Z,1017.88
2022-10-07T08:16:14.957Z,1017.86
2022-10-07T08:17:14.906Z,1017.89
2022-10-07T08:18:14.891Z,1017.89
2022-10-07T08:19:14.885Z,1017.91
2022-10-07T08:20:14.880Z,1017.88
2022-10-07T08:21:14.903Z,1017.85
2022-10-07T08:22:14.848Z,1017.85
2022-10-07T08:23:14.844Z,1017.81
2022-10-07T08:24:14.849Z,1017.84
2022-10-07T08:25:14.825Z,1017.80
2022-10-07T08:26:14.816Z,1017.86
2022-10-07T08:27:14.810Z,1017.80
2022-10-07T08:28:14.850Z,1017.78
2022-10-07T08:29:14.776Z,1017.84
2022-10-07T08:30:14.759Z,1017.81
2022-10-07T08:31:14.807Z,1017.86
2022-10-07T08:32:14.747Z,1017.74
2022-10-07T08:33:14.755Z,1017.76
2022-10-07T08:34:14.717Z,1017.72
2022-10-07T08:35:14.718Z,1017.73
2022-10-07T08:36:14.696Z,1017.72
2022-10-07T08:37:14.716Z,1017.70
2022-10-07T08:38:14.703Z,1017.71
2022-10-07T08:39:14.664Z,1017.72
2022-10-07T08:40:14.663Z,1017.66
2022-10-07T08:41:14.641Z,1017.70
2022-10-07T08:42:14.637Z,1017.67
2022-10-07T08:43:14.633Z,1017.61
2022-10-07T08:44:16.889Z,1017.59
2022-10-07T08:45:14.621Z,1017.59
2022-10-07T08:46:14.646Z,1017.62
2022-10-07T08:47:14.578Z,1017.57
2022-10-07T08:48:14.587Z,1017.53
2022-10-07T08:49:14.564Z,1017.56
2022-10-07T08:50:19.119Z,1017.48
2022-10-07T08:51:15.541Z,1017.52
2022-10-07T08:52:14.528Z,1017.52
2022-10-07T08:53:14.536Z,1017.56
2022-10-07T08:54:14.499Z,1017.53
2022-10-07T08:55:14.491Z,1017.60
2022-10-07T08:56:14.470Z,1017.59
2022-10-07T08:57:14.470Z,1017.55
2022-10-07T08:58:14.448Z,1017.48
2022-10-07T08:59:14.463Z,1017.44
2022-10-07T09:00:14.428Z,1017.45
2022-10-07T09:01:14.510Z,1017.37
2022-10-07T09:02:14.460Z,1017.35
2022-10-07T09:03:14.405Z,1017.40
2022-10-07T09:04:14.383Z,1017.36
2022-10-07T09:05:14.401Z,1017.38
2022-10-07T09:06:14.362Z,1017.40
2022-10-07T09:07:14.361Z,1017.42
2022-10-07T09:08:14.351Z,1017.36
2022-10-07T09:09:14.346Z,1017.30
2022-10-07T09:10:14.326Z,1017.35
2022-10-07T09:11:14.317Z,1017.33
2022-10-07T09:12:14.294Z,1017.33
2022-10-07T09:13:14.299Z,1017.33
2022-10-07T09:14:14.303Z,1017.31
2022-10-07T09:15:14.264Z,1017.30
2022-10-07T09:16:14.324Z,1017.34
2022-10-07T09:17:14.260Z,1017.31
2022-10-07T09:18:14.237Z,1017.32
2022-10-07T09:19:14.218Z,1017.29
2022-10-07T09:20:14.202Z,1017.32
2022-10-07T09:21:14.192Z,1017.33
2022-10-07T09:22:14.193Z,1017.25
2022-10-07T09:23:14.224Z,1017.32
2022-10-07T09:24:14.169Z,1017.31
2022-10-07T09:25:14.178Z,1017.28
2022-10-07T09:26:14.135Z,1017.26
2022-10-07T09:27:14.144Z,1017.27
2022-10-07T09:28:14.165Z,1017.27
2022-10-07T09:29:14.142Z,1017.27
2022-10-07T09:30:14.354Z,1017.23
2022-10-07T09:31:14.206Z,1017.25
2022-10-07T09:32:14.118Z,1017.28
2022-10-07T09:33:14.087Z,1017.16
2022-10-07T09:34:14.109Z,1017.23
2022-10-07T09:35:14.103Z,1017.20
2022-10-07T09:36:14.078Z,1017.19
2022-10-07T09:37:14.019Z,1017.14
2022-10-07T09:38:14.123Z,1017.19
2022-10-07T09:39:14.047Z,1017.18
2022-10-07T09:40:14.072Z,1017.14
2022-10-07T09:41:14.063Z,1017.15
2022-10-07T09:42:13.959Z,1017.15
2022-10-07T09:43:14.251Z,1017.08
2022-10-07T09:44:13.955Z,1017.14
2022-10-07T09:45:13.953Z,1017.13
2022-10-07T09:46:13.946Z,1017.13
2022-10-07T09:47:13.929Z,1017.14
2022-10-07T09:48:13.899Z,1017.11
2022-10-07T09:49:13.878Z,1017.13
2022-10-07T09:50:13.865Z,1017.13
2022-10-07T09:51:13.869Z,1017.08
2022-10-07T09:52:13.856Z,1017.09
2022-10-07T09:53:13.833Z,1017.12
2022-10-07T09:54:13.827Z,1017.05
2022-10-07T09:55:13.817Z,1017.03
2022-10-07T09:56:13.805Z,1017.04
2022-10-07T09:57:18.244Z,1017.09
2022-10-07T09:58:14.775Z,1017.05
2022-10-07T09:59:13.766Z,1017.01
2022-10-07T10:00:13.759Z,1017.06
2022-10-07T10:01:13.745Z,1016.99
2022-10-07T10:02:13.904Z,1017.02
2022-10-07T10:03:13.780Z,1016.98
2022-10-07T10:04:13.708Z,1017.02
2022-10-07T10:05:13.698Z,1016.92
2022-10-07T10:06:13.686Z,1017.00
2022-10-07T10:07:13.707Z,1016.98
2022-10-07T10:08:13.663Z,1016.92
2022-10-07T10:09:18.109Z,1016.91
2022-10-07T10:10:14.646Z,1016.88
2022-10-07T10:11:13.633Z,1016.89
2022-10-07T10:12:13.622Z,1016.88
2022-10-07T10:13:13.690Z,1016.89
2022-10-07T10:14:13.622Z,1016.90
2022-10-07T10:15:13.586Z,1016.90
2022-10-07T10:16:13.612Z,1016.85
2022-10-07T10:17:13.567Z,1016.89
2022-10-07T10:18:13.569Z,1016.80
2022-10-07T10:19:13.542Z,1016.84
2022-10-07T10:20:13.543Z,1016.81
2022-10-07T10:21:13.524Z,1016.83
2022-10-07T10:22:13.512Z,1016.80
2022-10-07T10:23:13.500Z,1016.74
2022-10-07T10:24:13.502Z,1016.76
2022-10-07T10:25:13.511Z,1016.76
2022-10-07T10:26:13.461Z,1016.75
2022-10-07T10:27:13.469Z,1016.72
2022-10-07T10:28:13.518Z,1016.71
2022-10-07T10:29:13.458Z,1016.74
2022-10-07T10:30:13.416Z,1016.71
2022-10-07T10:31:13.498Z,1016.74
2022-10-07T10:32:13.407Z,1016.69
2022-10-07T10:33:13.383Z,1016.68
2022-10-07T10:34:13.383Z,1016.72
2022-10-07T10:35:13.376Z,1016.72
2022-10-07T10:36:13.350Z,1016.75
2022-10-07T10:37:14.661Z,1016.73
2022-10-07T10:38:13.328Z,1016.69
2022-10-07T10:39:13.321Z,1016.62
2022-10-07T10:40:13.306Z,1016.61
2022-10-07T10:41:13.303Z,1016.65
2022-10-07T10:42:13.314Z,1016.58
2022-10-07T10:43:13.292Z,1016.55
2022-10-07T10:44:13.261Z,1016.57
2022-10-07T10:45:13.279Z,1016.57
2022-10-07T10:46:13.310Z,1016.54
2022-10-07T10:47:13.231Z,1016.57
2022-10-07T10:48:13.229Z,1016.52
2022-10-07T10:49:13.227Z,1016.54
2022-10-07T10:50:13.192Z,1016.42
2022-10-07T10:51:13.200Z,1016.45
2022-10-07T10:52:13.719Z,1016.51
2022-10-07T10:53:13.166Z,1016.46
2022-10-07T10:54:13.152Z,1016.43
2022-10-07T10:55:13.179Z,1016.40
2022-10-07T10:56:13.128Z,1016.37
2022-10-07T10:57:13.127Z,1016.35
2022-10-07T10:58:13.112Z,1016.35
2022-10-07T10:59:13.127Z,1016.32
2022-10-07T11:00:13.109Z,1016.29
2022-10-07T11:01:13.095Z,1016.30
2022-10-07T11:02:13.134Z,1016.27
2022-10-07T11:03:13.129Z,1016.29
2022-10-07T11:04:20.088Z,1016.22
2022-10-07T11:05:13.028Z,1016.13
2022-10-07T11:06:14.871Z,1016.17
2022-10-07T11:07:13.026Z,1016.12
2022-10-07T11:08:13.006Z,1016.14
2022-10-07T11:09:13.011Z,1016.11
2022-10-07T11:10:12.978Z,1016.11
2022-10-07T11:11:12.996Z,1016.06
2022-10-07T11:12:12.982Z,1016.03
2022-10-07T11:13:12.957Z,1016.05
2022-10-07T11:14:12.928Z,1016.03
2022-10-07T11:15:12.925Z,1015.97
2022-10-07T11:16:12.954Z,1016.06
2022-10-07T11:17:13.079Z,1015.97
2022-10-07T11:18:12.903Z,1015.88
2022-10-07T11:19:12.882Z,1015.84
2022-10-07T11:20:12.867Z,1015.88
2022-10-07T11:21:12.858Z,1015.82
2022-10-07T11:22:12.841Z,1015.82
2022-10-07T11:23:12.826Z,1015.79
2022-10-07T11:24:12.820Z,1015.78
2022-10-07T11:25:12.810Z,1015.65
2022-10-07T11:26:12.811Z,1015.69
2022-10-07T11:27:12.828Z,1015.68
2022-10-07T11:28:12.823Z,1015.70
2022-10-07T11:29:12.811Z,1015.68
2022-10-07T11:30:12.753Z,1015.69
2022-10-07T11:31:12.813Z,1015.72
2022-10-07T11:32:12.739Z,1015.63
2022-10-07T11:33:12.740Z,1015.65
2022-10-07T11:34:12.705Z,1015.66
2022-10-07T11:35:12.710Z,1015.64
2022-10-07T11:36:12.697Z,1015.66
2022-10-07T11:37:12.679Z,1015.63
2022-10-07T11:38:12.662Z,1015.66
2022-10-07T11:39:12.669Z,1015.60
2022-10-07T11:40:12.666Z,1015.62
2022-10-07T11:41:12.634Z,1015.60
2022-10-07T11:42:12.615Z,1015.58
2022-10-07T11:43:12.617Z,1015.51
2022-10-07T11:44:12.608Z,1015.57
2022-10-07T11:45:12.600Z,1015.42
2022-10-07T11:46:12.719Z,1015.46
2022-10-07T11:47:12.570Z,1015.50
2022-10-07T11:48:12.555Z,1015.53
2022-10-07T11:49:12.580Z,1015.50
2022-10-07T11:50:12.549Z,1015.40
2022-10-07T11:51:12.523Z,1015.43
2022-10-07T11:52:12.506Z,1015.38
2022-10-07T11:53:12.495Z,1015.39
2022-10-07T11:54:12.496Z,1015.39
2022-10-07T11:55:12.480Z,1015.29
2022-10-07T11:56:12.489Z,1015.31
2022-10-07T11:57:12.465Z,1015.25
2022-10-07T11:58:12.453Z,1015.19
2022-10-07T11:59:12.440Z,1015.24
2022-10-07T12:00:12.435Z,1015.27
2022-10-07T12:01:12.406Z,1015.17
2022-10-07T12:02:15.680Z,1015.16
2022-10-07T12:03:12.437Z,1015.19
2022-10-07T12:04:12.386Z,1015.10
2022-10-07T12:05:12.380Z,1015.15